Time;durP1;ratioP1;P1;durP2;ratioP2;P2;SDS_P1;SDS_P2;PMS_P1;PMS_P2;Temp;Humidity;BMP_temperature;BMP_pressure;BME280_temperature;BME280_humidity;BME280_pressure;Samples;Min_cycle;Max_cycle;Signal;HPM_P1;HPM_P2
2023/11/24 00:02:16;;;;;;;9.65;2.30;;;7.00;99.90;;;;;;5066969;28;20036;-65
2023/11/24 00:04:43;;;;;;;12.15;2.05;;;7.00;99.90;;;;;;5067024;28;20040;-65
2023/11/24 00:07:10;;;;;;;12.30;1.88;;;7.00;99.90;;;;;;5064367;28;20048;-65
2023/11/24 00:09:35;;;;;;;11.63;1.65;;;6.90;99.90;;;;;;5066033;28;20058;-65
2023/11/24 00:12:01;;;;;;;12.93;1.90;;;6.90;99.90;;;;;;5066643;28;20025;-65
2023/11/24 00:14:27;;;;;;;8.38;1.95;;;6.90;99.90;;;;;;5065751;28;20068;-65
2023/11/24 00:16:53;;;;;;;10.95;1.98;;;6.80;99.90;;;;;;5067390;28;20442;-65
2023/11/24 00:19:19;;;;;;;11.05;1.60;;;6.80;99.90;;;;;;5066894;28;20597;-65
2023/11/24 00:21:49;;;;;;;12.48;1.70;;;6.80;99.90;;;;;;5065283;28;20086;-65
2023/11/24 00:24:16;;;;;;;12.32;2.63;;;6.80;99.90;;;;;;5065390;28;20067;-65
2023/11/24 00:26:41;;;;;;;15.32;2.13;;;6.80;99.90;;;;;;5065339;28;20036;-65
2023/11/24 00:29:07;;;;;;;10.40;2.00;;;6.80;99.90;;;;;;5065894;28;20036;-65
2023/11/24 00:31:33;;;;;;;16.20;1.95;;;6.80;99.90;;;;;;5066584;28;20036;-65
2023/11/24 00:34:00;;;;;;;10.05;1.83;;;6.80;99.90;;;;;;5068901;28;20040;-65
2023/11/24 00:36:27;;;;;;;14.10;2.20;;;6.80;99.90;;;;;;5097818;28;20475;-65
2023/11/24 00:38:52;;;;;;;19.52;2.92;;;6.70;99.90;;;;;;5048636;28;20044;-65
2023/11/24 00:41:19;;;;;;;13.98;2.65;;;6.70;99.90;;;;;;5065536;28;20407;-65
2023/11/24 00:43:46;;;;;;;11.98;3.60;;;6.70;99.90;;;;;;5065895;28;20041;-65
2023/11/24 00:46:12;;;;;;;12.57;1.70;;;6.80;99.90;;;;;;5067154;28;20387;-65
2023/11/24 00:48:39;;;;;;;15.85;2.45;;;6.80;99.90;;;;;;5082918;28;20053;-65
2023/11/24 00:51:05;;;;;;;17.85;3.35;;;6.90;99.90;;;;;;5064721;28;20040;-65
2023/11/24 00:53:34;;;;;;;18.80;2.53;;;6.80;99.90;;;;;;5064777;28;20044;-65
2023/11/24 00:56:00;;;;;;;14.27;2.95;;;6.90;99.90;;;;;;5066348;28;20085;-65
2023/11/24 00:58:26;;;;;;;16.77;2.75;;;6.80;99.90;;;;;;5065201;28;20083;-65
2023/11/24 01:00:53;;;;;;;15.88;3.05;;;6.90;99.90;;;;;;5063119;28;20087;-65
2023/11/24 01:03:22;;;;;;;15.27;2.60;;;6.90;99.90;;;;;;5096415;28;20097;-65
2023/11/24 01:05:49;;;;;;;14.15;2.15;;;6.90;99.90;;;;;;5065380;28;20037;-65
2023/11/24 01:08:15;;;;;;;17.30;3.47;;;7.00;99.90;;;;;;5066259;28;20032;-65
2023/11/24 01:10:41;;;;;;;20.13;3.03;;;6.90;99.90;;;;;;5066205;28;20549;-65
2023/11/24 01:13:07;;;;;;;14.55;2.42;;;6.90;99.90;;;;;;5094149;28;20033;-65
2023/11/24 01:15:32;;;;;;;14.95;1.90;;;6.80;99.90;;;;;;5066353;28;20039;-65
2023/11/24 01:17:59;;;;;;;15.95;3.08;;;6.80;99.90;;;;;;5079662;28;20154;-65
2023/11/24 01:20:25;;;;;;;18.60;2.92;;;6.80;99.90;;;;;;5066978;28;20117;-65
2023/11/24 01:22:50;;;;;;;14.57;3.33;;;6.70;99.90;;;;;;5067290;28;20048;-65
2023/11/24 01:25:16;;;;;;;15.27;2.33;;;6.70;99.90;;;;;;5068102;28;20036;-65
2023/11/24 01:27:42;;;;;;;13.30;2.03;;;6.70;99.90;;;;;;5066990;28;20383;-65
2023/11/24 01:30:08;;;;;;;21.50;2.72;;;6.80;99.90;;;;;;5065054;28;20036;-65
2023/11/24 01:32:34;;;;;;;14.70;2.65;;;6.80;99.90;;;;;;5097663;28;20056;-65
2023/11/24 01:35:00;;;;;;;13.85;1.40;;;6.80;99.90;;;;;;5066580;28;20032;-65
2023/11/24 01:37:25;;;;;;;12.13;1.35;;;6.80;99.90;;;;;;5093744;28;20041;-65
2023/11/24 01:39:51;;;;;;;8.43;1.40;;;6.90;99.90;;;;;;5065112;28;20391;-65
2023/11/24 01:42:17;;;;;;;15.68;2.10;;;6.90;99.90;;;;;;5065835;28;20059;-66
2023/11/24 01:44:43;;;;;;;10.95;1.67;;;6.80;99.90;;;;;;5065224;28;20053;-65
2023/11/24 01:47:08;;;;;;;16.45;2.00;;;6.80;99.90;;;;;;5066961;28;20411;-65
2023/11/24 01:49:35;;;;;;;15.70;2.30;;;6.80;99.90;;;;;;5063822;28;20051;-65
2023/11/24 01:52:01;;;;;;;11.63;1.67;;;6.80;99.90;;;;;;5065015;28;20044;-65
2023/11/24 01:54:33;;;;;;;9.00;1.85;;;6.70;99.90;;;;;;5065688;28;20453;-65
2023/11/24 01:57:01;;;;;;;10.35;1.67;;;6.70;99.90;;;;;;5062128;28;20040;-65
2023/11/24 01:59:27;;;;;;;14.00;2.25;;;6.70;99.90;;;;;;5065141;28;20520;-65
2023/11/24 02:01:52;;;;;;;9.57;1.73;;;6.70;99.90;;;;;;5064888;28;20044;-65
2023/11/24 02:04:18;;;;;;;13.20;2.10;;;6.60;99.90;;;;;;5065623;28;20040;-65
2023/11/24 02:06:44;;;;;;;10.80;2.00;;;6.60;99.90;;;;;;5066226;28;20045;-65
2023/11/24 02:09:10;;;;;;;12.20;2.10;;;6.60;99.90;;;;;;5064828;28;20045;-65
2023/11/24 02:11:36;;;;;;;12.77;2.15;;;6.60;99.90;;;;;;5063916;28;20048;-65
2023/11/24 02:14:01;;;;;;;10.30;1.70;;;6.50;99.90;;;;;;5065513;28;20045;-65
2023/11/24 02:16:27;;;;;;;9.73;2.13;;;6.50;99.90;;;;;;5064185;28;20048;-65
2023/11/24 02:18:53;;;;;;;17.77;2.75;;;6.50;99.90;;;;;;5062374;28;20052;-65
2023/11/24 02:21:19;;;;;;;9.82;2.22;;;6.40;99.90;;;;;;5064811;28;20033;-65
2023/11/24 02:23:44;;;;;;;15.63;2.40;;;6.40;99.90;;;;;;5064088;28;20033;-65
2023/11/24 02:26:10;;;;;;;12.30;1.55;;;6.40;99.90;;;;;;5065215;28;20036;-65
2023/11/24 02:28:36;;;;;;;11.48;2.15;;;6.40;99.90;;;;;;5065497;28;20064;-65
2023/11/24 02:31:03;;;;;;;12.45;2.10;;;6.40;99.90;;;;;;5064179;28;20051;-65
2023/11/24 02:33:33;;;;;;;18.70;1.77;;;6.40;99.90;;;;;;5062651;28;20086;-65
2023/11/24 02:36:05;;;;;;;6.30;1.33;;;6.40;99.90;;;;;;5062979;28;20052;-65
2023/11/24 02:38:32;;;;;;;10.10;1.38;;;6.40;99.90;;;;;;5096359;28;20417;-65
2023/11/24 02:40:58;;;;;;;6.05;1.58;;;6.40;99.90;;;;;;5065927;28;20052;-65
2023/11/24 02:43:24;;;;;;;11.57;1.55;;;6.40;99.90;;;;;;5065443;28;20151;-65
2023/11/24 02:45:50;;;;;;;7.97;1.35;;;6.30;99.90;;;;;;5095535;28;20128;-65
2023/11/24 02:48:16;;;;;;;11.02;1.33;;;6.30;99.90;;;;;;5065296;28;20048;-65
2023/11/24 02:50:42;;;;;;;13.90;2.28;;;6.30;99.90;;;;;;5062421;28;20041;-65
2023/11/24 02:53:08;;;;;;;6.50;1.60;;;6.30;99.90;;;;;;5066844;28;20052;-65
2023/11/24 02:55:33;;;;;;;10.68;1.23;;;6.30;99.90;;;;;;5070031;28;20047;-65
2023/11/24 02:58:00;;;;;;;9.43;2.38;;;6.30;99.90;;;;;;5065892;28;20106;-65
2023/11/24 03:00:26;;;;;;;8.32;1.20;;;6.30;99.90;;;;;;5067977;28;20055;-65
2023/11/24 03:02:52;;;;;;;6.85;1.23;;;6.40;99.90;;;;;;5068636;28;20044;-65
2023/11/24 03:05:19;;;;;;;10.82;1.40;;;6.30;99.90;;;;;;5067080;28;20174;-65
2023/11/24 03:07:44;;;;;;;9.18;1.10;;;6.40;99.90;;;;;;5070806;28;20059;-65
2023/11/24 03:10:11;;;;;;;9.82;1.27;;;6.40;99.90;;;;;;5069024;28;20037;-65
2023/11/24 03:12:37;;;;;;;12.93;1.95;;;6.40;99.90;;;;;;5068826;28;20040;-65
2023/11/24 03:15:03;;;;;;;11.48;1.35;;;6.40;99.90;;;;;;5069727;28;20041;-65
2023/11/24 03:17:30;;;;;;;12.05;1.65;;;6.40;99.90;;;;;;5067805;28;20048;-65
2023/11/24 03:19:55;;;;;;;6.18;0.93;;;6.30;99.90;;;;;;5067428;28;20123;-66
2023/11/24 03:22:21;;;;;;;9.90;1.10;;;6.20;99.90;;;;;;5068502;28;20146;-66
2023/11/24 03:24:46;;;;;;;8.40;0.77;;;6.20;99.90;;;;;;5068218;28;20040;-65
2023/11/24 03:27:12;;;;;;;5.20;0.70;;;6.20;99.90;;;;;;5070205;28;20052;-65
2023/11/24 03:29:39;;;;;;;8.82;1.15;;;6.10;99.90;;;;;;5067573;28;20064;-65
2023/11/24 03:32:05;;;;;;;10.35;1.30;;;6.00;99.90;;;;;;5068972;28;20043;-65
2023/11/24 03:34:32;;;;;;;7.65;0.82;;;6.10;99.90;;;;;;5068486;28;20598;-65
2023/11/24 03:36:57;;;;;;;6.13;0.88;;;6.00;99.90;;;;;;5071561;28;20496;-65
2023/11/24 03:39:23;;;;;;;12.80;1.10;;;6.00;99.90;;;;;;5069781;28;20191;-65
2023/11/24 03:41:49;;;;;;;9.85;1.38;;;6.00;99.90;;;;;;5069057;28;20039;-65
2023/11/24 03:44:14;;;;;;;9.60;1.15;;;6.00;99.90;;;;;;5068166;28;20043;-65
2023/11/24 03:46:40;;;;;;;11.90;1.77;;;6.00;99.90;;;;;;5100430;27;20131;-65
2023/11/24 03:49:08;;;;;;;10.98;1.65;;;6.00;99.90;;;;;;5066196;28;20127;-65
2023/11/24 03:51:35;;;;;;;12.30;1.20;;;6.00;99.90;;;;;;5084756;28;20037;-65
2023/11/24 03:54:00;;;;;;;8.23;1.08;;;5.90;99.90;;;;;;5097416;27;20047;-65
2023/11/24 03:56:26;;;;;;;11.20;1.02;;;5.90;99.90;;;;;;5071107;28;20453;-65
2023/11/24 03:58:52;;;;;;;12.65;1.55;;;6.00;99.90;;;;;;5068896;28;20041;-65
2023/11/24 04:01:17;;;;;;;8.13;1.10;;;6.00;99.90;;;;;;5067122;28;20036;-65
2023/11/24 04:03:46;;;;;;;11.43;1.63;;;6.10;99.90;;;;;;5069236;28;20122;-65
2023/11/24 04:06:13;;;;;;;13.48;1.30;;;6.10;99.90;;;;;;5064534;28;20055;-65
2023/11/24 04:08:39;;;;;;;7.80;1.23;;;6.10;99.90;;;;;;5065137;28;20082;-65
2023/11/24 04:11:05;;;;;;;10.77;1.60;;;6.10;99.90;;;;;;5068288;28;20102;-65
2023/11/24 04:13:31;;;;;;;9.25;1.58;;;6.10;99.90;;;;;;5081533;28;20119;-65
2023/11/24 04:15:57;;;;;;;8.30;1.38;;;6.00;99.90;;;;;;5067320;28;20082;-65
2023/11/24 04:18:22;;;;;;;10.68;1.33;;;5.90;99.90;;;;;;5101917;27;20052;-65
2023/11/24 04:20:48;;;;;;;10.55;1.63;;;6.00;99.90;;;;;;5064713;28;20151;-66
2023/11/24 04:23:13;;;;;;;10.35;1.35;;;5.90;99.90;;;;;;5069418;28;20047;-66
2023/11/24 04:25:43;;;;;;;8.07;1.00;;;5.80;99.90;;;;;;5066481;28;20032;-66
2023/11/24 04:28:10;;;;;;;15.13;1.85;;;5.80;99.90;;;;;;5069197;28;20048;-66
2023/11/24 04:30:36;;;;;;;8.73;1.00;;;5.80;99.90;;;;;;5064884;28;20044;-65
2023/11/24 04:33:02;;;;;;;5.35;1.45;;;5.70;99.90;;;;;;5070351;28;20032;-65
2023/11/24 04:35:28;;;;;;;11.38;1.08;;;5.70;99.90;;;;;;5069613;28;20036;-65
2023/11/24 04:37:53;;;;;;;12.20;1.80;;;5.70;99.90;;;;;;5067140;28;20234;-65
2023/11/24 04:40:19;;;;;;;13.95;1.42;;;5.60;99.90;;;;;;5065063;28;20040;-66
2023/11/24 04:42:45;;;;;;;8.40;1.20;;;5.70;99.90;;;;;;5067512;28;20487;-66
2023/11/24 04:45:11;;;;;;;6.57;0.95;;;5.70;99.90;;;;;;5065879;28;20048;-66
2023/11/24 04:47:38;;;;;;;9.57;1.25;;;5.70;99.90;;;;;;5069982;28;20044;-65
2023/11/24 04:50:06;;;;;;;5.80;0.55;;;5.70;99.90;;;;;;5063981;28;20168;-65
2023/11/24 04:52:32;;;;;;;7.75;1.27;;;5.70;99.90;;;;;;5067085;28;20059;-65
2023/11/24 04:54:57;;;;;;;5.05;0.60;;;5.60;99.90;;;;;;5065485;28;20040;-65
2023/11/24 04:57:23;;;;;;;6.57;0.77;;;5.70;99.90;;;;;;5067692;28;20036;-65
2023/11/24 04:59:48;;;;;;;5.45;0.60;;;5.70;99.90;;;;;;5066884;28;20036;-65
2023/11/24 05:02:14;;;;;;;6.70;0.77;;;5.60;99.90;;;;;;5068050;28;20047;-65
2023/11/24 05:04:39;;;;;;;9.32;0.80;;;5.60;99.90;;;;;;5068622;28;20040;-65
2023/11/24 05:07:05;;;;;;;5.32;0.50;;;5.60;99.90;;;;;;5066004;28;20370;-65
2023/11/24 05:09:31;;;;;;;7.30;0.68;;;5.60;99.90;;;;;;5065898;28;20117;-65
2023/11/24 05:11:56;;;;;;;5.97;0.60;;;5.60;99.90;;;;;;5065939;28;20036;-65
2023/11/24 05:14:22;;;;;;;9.07;0.60;;;5.50;99.90;;;;;;5065667;28;20039;-65
2023/11/24 05:16:47;;;;;;;8.80;0.75;;;5.40;99.90;;;;;;5064461;28;20079;-65
2023/11/24 05:19:13;;;;;;;12.23;1.30;;;5.40;99.90;;;;;;5066045;28;20856;-65
2023/11/24 05:21:40;;;;;;;12.68;1.60;;;5.40;99.90;;;;;;5063591;28;20098;-65
2023/11/24 05:24:06;;;;;;;8.93;1.02;;;5.30;99.90;;;;;;5065518;28;20159;-65
2023/11/24 05:26:32;;;;;;;8.10;0.88;;;5.30;99.90;;;;;;5062945;28;20101;-65
2023/11/24 05:28:59;;;;;;;5.25;0.70;;;5.30;99.90;;;;;;5066666;28;20036;-65
2023/11/24 05:31:25;;;;;;;8.52;0.60;;;5.30;99.90;;;;;;5067054;28;20049;-65
2023/11/24 05:33:51;;;;;;;5.80;0.77;;;5.20;99.90;;;;;;5066665;28;20041;-65
2023/11/24 05:36:18;;;;;;;7.50;0.70;;;5.20;99.90;;;;;;5066172;28;20040;-65
2023/11/24 05:38:45;;;;;;;4.40;0.50;;;5.20;99.90;;;;;;5065415;28;20055;-65
2023/11/24 05:41:10;;;;;;;6.63;1.20;;;4.90;99.90;;;;;;5063274;28;20044;-65
2023/11/24 05:43:36;;;;;;;8.77;0.88;;;5.30;99.90;;;;;;5065427;28;20036;-65
2023/11/24 05:46:03;;;;;;;9.65;1.17;;;5.40;99.90;;;;;;5068307;28;20033;-65
2023/11/24 05:48:29;;;;;;;7.10;0.82;;;5.40;99.90;;;;;;5069506;28;20051;-65
2023/11/24 05:50:56;;;;;;;5.63;0.43;;;5.40;99.90;;;;;;5062938;28;20041;-65
2023/11/24 05:53:21;;;;;;;7.03;0.75;;;5.50;99.90;;;;;;5069535;28;20041;-65
2023/11/24 05:55:47;;;;;;;8.70;0.90;;;5.50;99.90;;;;;;5065569;28;20037;-65
2023/11/24 05:58:13;;;;;;;6.72;0.40;;;5.50;99.90;;;;;;5065836;28;20048;-65
2023/11/24 06:00:39;;;;;;;6.43;0.55;;;5.50;99.90;;;;;;5063411;28;20074;-65
2023/11/24 06:03:04;;;;;;;6.53;0.43;;;5.40;99.90;;;;;;5065139;28;20510;-65
2023/11/24 06:05:30;;;;;;;6.13;0.40;;;5.40;99.90;;;;;;5064048;28;20037;-65
2023/11/24 06:07:57;;;;;;;7.45;1.17;;;5.40;99.90;;;;;;5065328;28;20110;-65
2023/11/24 06:10:24;;;;;;;6.90;0.90;;;5.40;99.90;;;;;;5063735;28;20036;-65
2023/11/24 06:12:50;;;;;;;4.85;0.65;;;5.40;99.90;;;;;;5064921;28;20451;-65
2023/11/24 06:15:16;;;;;;;3.45;0.38;;;5.40;99.90;;;;;;5063710;28;20065;-65
2023/11/24 06:17:42;;;;;;;3.40;0.30;;;5.40;99.90;;;;;;5065608;28;20454;-65
2023/11/24 06:20:10;;;;;;;4.43;0.75;;;5.40;99.90;;;;;;5064567;28;20120;-65
2023/11/24 06:22:36;;;;;;;1.73;0.30;;;5.40;99.90;;;;;;5063292;28;20049;-65
2023/11/24 06:25:02;;;;;;;3.55;0.70;;;5.50;99.90;;;;;;5061230;28;20041;-65
2023/11/24 06:27:28;;;;;;;7.20;0.50;;;5.40;99.90;;;;;;5061863;28;20353;-65
2023/11/24 06:29:53;;;;;;;3.70;0.30;;;5.40;99.90;;;;;;5068599;28;20036;-65
2023/11/24 06:32:19;;;;;;;4.07;0.80;;;5.50;99.90;;;;;;5064133;28;20045;-65
2023/11/24 06:34:45;;;;;;;2.70;0.50;;;5.40;99.90;;;;;;5065938;28;20692;-65
2023/11/24 06:37:10;;;;;;;3.00;1.00;;;5.40;99.90;;;;;;5068347;28;20032;-65
2023/11/24 06:39:36;;;;;;;1.90;0.43;;;5.40;99.90;;;;;;5062838;28;20055;-65
2023/11/24 06:42:04;;;;;;;6.82;0.90;;;5.40;99.90;;;;;;5063973;28;20475;-65
2023/11/24 06:44:30;;;;;;;5.20;0.75;;;5.40;99.90;;;;;;5067785;28;20040;-65
2023/11/24 06:46:55;;;;;;;6.47;0.88;;;5.30;99.90;;;;;;5064794;28;20044;-65
2023/11/24 06:49:21;;;;;;;9.75;1.70;;;5.30;99.90;;;;;;5064397;28;20148;-65
2023/11/24 06:51:49;;;;;;;5.30;0.70;;;5.30;99.90;;;;;;5064883;28;20041;-65
2023/11/24 06:54:15;;;;;;;6.00;0.85;;;5.30;99.90;;;;;;5061867;28;20506;-65
2023/11/24 06:56:41;;;;;;;8.95;1.40;;;5.30;99.90;;;;;;5062984;28;20036;-65
2023/11/24 06:59:07;;;;;;;5.50;0.88;;;5.30;99.90;;;;;;5065144;28;20094;-65
2023/11/24 07:01:34;;;;;;;6.78;1.35;;;5.30;99.90;;;;;;5095298;27;20102;-65
2023/11/24 07:04:03;;;;;;;10.52;1.35;;;5.40;99.90;;;;;;5065293;28;20397;-65
2023/11/24 07:06:30;;;;;;;9.18;0.93;;;5.30;99.90;;;;;;5067814;28;20029;-65
2023/11/24 07:08:56;;;;;;;10.38;1.90;;;5.40;99.90;;;;;;5064268;28;20051;-65
2023/11/24 07:11:22;;;;;;;13.48;1.67;;;5.40;99.90;;;;;;5063658;28;20356;-65
2023/11/24 07:13:49;;;;;;;10.05;0.90;;;5.30;99.90;;;;;;5065486;28;20033;-65
2023/11/24 07:16:16;;;;;;;8.38;1.63;;;5.40;99.90;;;;;;5067050;28;20032;-65
2023/11/24 07:18:41;;;;;;;6.10;0.75;;;5.30;99.90;;;;;;5068208;28;20080;-65
2023/11/24 07:21:07;;;;;;;6.90;0.85;;;5.40;99.90;;;;;;5068700;28;20086;-65
2023/11/24 07:23:37;;;;;;;10.98;1.55;;;5.30;99.90;;;;;;5096661;28;20040;-65
2023/11/24 07:26:07;;;;;;;5.68;1.05;;;5.30;99.90;;;;;;5068738;28;20032;-66
2023/11/24 07:28:35;;;;;;;8.43;1.02;;;5.20;99.90;;;;;;5100198;28;20040;-65
2023/11/24 07:31:01;;;;;;;8.90;0.90;;;5.20;99.90;;;;;;5066812;28;20076;-65
2023/11/24 07:33:29;;;;;;;6.40;1.17;;;5.20;99.90;;;;;;5069358;28;20048;-65
2023/11/24 07:35:55;;;;;;;5.68;1.23;;;5.10;99.90;;;;;;5101659;27;20048;-65
2023/11/24 07:38:20;;;;;;;10.07;0.80;;;5.20;99.90;;;;;;5069619;28;20098;-66
2023/11/24 07:40:46;;;;;;;8.30;0.93;;;5.20;99.90;;;;;;5067543;28;20452;-66
2023/11/24 07:43:13;;;;;;;7.15;0.95;;;5.10;99.90;;;;;;5069335;28;20036;-65
2023/11/24 07:45:39;;;;;;;6.60;0.77;;;5.20;99.90;;;;;;5066709;28;20036;-65
2023/11/24 07:48:04;;;;;;;7.93;2.00;;;5.20;99.90;;;;;;5067284;28;20086;-65
2023/11/24 07:50:30;;;;;;;5.68;0.55;;;5.10;99.90;;;;;;5067141;28;20113;-65
2023/11/24 07:52:55;;;;;;;8.07;1.20;;;5.10;99.90;;;;;;5070618;28;20044;-65
2023/11/24 07:55:22;;;;;;;6.50;0.65;;;5.10;99.90;;;;;;5065932;28;20037;-65
2023/11/24 07:57:47;;;;;;;10.77;1.10;;;5.20;99.90;;;;;;5064823;28;20384;-65
2023/11/24 08:00:13;;;;;;;10.55;1.25;;;5.30;99.90;;;;;;5068149;28;20037;-65
2023/11/24 08:02:40;;;;;;;8.68;1.98;;;5.30;99.90;;;;;;5066626;28;20039;-65
2023/11/24 08:05:06;;;;;;;11.23;1.48;;;5.30;99.90;;;;;;5065215;28;20044;-65
2023/11/24 08:07:32;;;;;;;10.02;1.27;;;5.30;99.90;;;;;;5065450;28;20045;-65
2023/11/24 08:09:58;;;;;;;8.10;1.23;;;5.30;99.90;;;;;;5067279;28;20044;-65
2023/11/24 08:12:23;;;;;;;8.30;1.17;;;5.30;99.90;;;;;;5065893;28;20024;-65
2023/11/24 08:14:50;;;;;;;8.43;2.40;;;5.30;99.90;;;;;;5064833;28;20532;-65
2023/11/24 08:17:16;;;;;;;6.43;1.15;;;5.30;99.90;;;;;;5067223;28;20169;-65
2023/11/24 08:19:42;;;;;;;9.55;1.10;;;5.30;99.90;;;;;;5060635;28;20040;-65
2023/11/24 08:22:07;;;;;;;11.30;1.77;;;5.30;99.90;;;;;;5068657;28;20152;-65
2023/11/24 08:24:34;;;;;;;11.20;1.33;;;5.30;99.90;;;;;;5066764;28;20098;-65
2023/11/24 08:27:00;;;;;;;11.68;1.40;;;5.30;99.90;;;;;;5069202;28;20044;-65
2023/11/24 08:29:26;;;;;;;12.57;1.85;;;5.30;99.90;;;;;;5069324;28;20092;-65
2023/11/24 08:31:52;;;;;;;11.52;1.88;;;5.40;99.90;;;;;;5102468;28;20056;-65
2023/11/24 08:34:18;;;;;;;8.05;1.30;;;5.30;99.90;;;;;;5066181;28;20174;-65
2023/11/24 08:36:45;;;;;;;13.95;1.42;;;5.40;99.90;;;;;;5065837;28;20130;-65
2023/11/24 08:39:14;;;;;;;12.40;1.48;;;5.30;99.90;;;;;;5063088;28;20063;-65
2023/11/24 08:41:44;;;;;;;9.30;1.50;;;5.50;99.90;;;;;;5065577;28;20074;-65
2023/11/24 08:44:14;;;;;;;10.82;1.17;;;5.40;99.90;;;;;;5064787;28;20071;-65
2023/11/24 08:46:40;;;;;;;16.73;1.60;;;5.50;99.90;;;;;;5065733;28;20628;-65
2023/11/24 08:49:08;;;;;;;8.23;1.00;;;5.50;99.90;;;;;;5064713;28;21735;-65
2023/11/24 08:51:34;;;;;;;7.50;2.28;;;5.50;99.90;;;;;;5064778;28;20047;-65
2023/11/24 08:54:00;;;;;;;11.70;1.15;;;5.50;99.90;;;;;;5065252;28;20036;-65
2023/11/24 08:56:28;;;;;;;9.07;1.30;;;5.60;99.90;;;;;;5063530;28;20036;-65
2023/11/24 08:58:53;;;;;;;12.20;1.48;;;5.60;99.90;;;;;;5065959;28;20736;-65
2023/11/24 09:01:19;;;;;;;7.18;1.42;;;5.60;99.90;;;;;;5064373;28;20128;-65
2023/11/24 09:03:44;;;;;;;8.05;0.80;;;5.70;99.90;;;;;;5065441;28;20028;-65
2023/11/24 09:06:10;;;;;;;7.13;1.38;;;5.70;99.90;;;;;;5068012;28;20047;-65
2023/11/24 09:08:36;;;;;;;8.30;1.23;;;5.70;99.90;;;;;;5065153;28;20052;-65
2023/11/24 09:11:01;;;;;;;12.40;1.83;;;5.80;99.90;;;;;;5061900;28;20043;-65
2023/11/24 09:13:27;;;;;;;12.98;1.20;;;5.90;99.90;;;;;;5060927;28;20042;-65
2023/11/24 09:15:52;;;;;;;9.57;2.33;;;6.00;99.90;;;;;;5060504;28;20058;-65
2023/11/24 09:18:21;;;;;;;8.68;1.10;;;6.10;99.90;;;;;;5063319;28;20044;-65
2023/11/24 09:20:47;;;;;;;8.35;1.65;;;6.10;99.90;;;;;;5094853;27;20052;-65
2023/11/24 09:23:12;;;;;;;13.88;1.95;;;6.20;99.90;;;;;;5065702;28;20465;-65
2023/11/24 09:25:38;;;;;;;11.57;1.92;;;6.20;99.90;;;;;;5065177;28;20076;-65
2023/11/24 09:28:04;;;;;;;13.90;1.65;;;6.30;99.90;;;;;;5064666;28;20074;-65
2023/11/24 09:30:30;;;;;;;15.60;2.22;;;6.30;99.90;;;;;;5059509;28;20407;-65
2023/11/24 09:32:56;;;;;;;8.85;1.60;;;6.20;99.90;;;;;;5060925;28;20044;-65
2023/11/24 09:35:23;;;;;;;8.95;1.42;;;6.20;99.90;;;;;;5064719;28;20063;-65
2023/11/24 09:37:49;;;;;;;11.25;1.58;;;6.20;99.90;;;;;;5066013;28;20642;-65
2023/11/24 09:40:19;;;;;;;10.20;1.58;;;6.20;99.90;;;;;;5064551;28;20067;-65
2023/11/24 09:42:45;;;;;;;16.55;2.03;;;6.30;99.90;;;;;;5063761;28;20025;-65
2023/11/24 09:45:16;;;;;;;8.63;1.77;;;6.30;99.90;;;;;;5063736;28;20554;-65
2023/11/24 09:47:44;;;;;;;11.20;1.80;;;6.50;99.90;;;;;;5063221;28;20514;-65
2023/11/24 09:50:12;;;;;;;12.02;1.88;;;6.50;99.90;;;;;;5046482;28;20037;-65
2023/11/24 09:52:45;;;;;;;11.88;1.80;;;6.60;99.90;;;;;;5093768;28;20048;-65
2023/11/24 09:55:11;;;;;;;14.68;1.95;;;6.60;99.90;;;;;;5064525;28;20094;-65
2023/11/24 09:57:39;;;;;;;14.50;2.17;;;6.70;99.90;;;;;;5064565;28;20028;-65
2023/11/24 10:00:08;;;;;;;11.88;1.70;;;6.80;99.90;;;;;;5063175;28;20121;-65
2023/11/24 10:02:35;;;;;;;14.95;2.17;;;7.00;99.90;;;;;;5061808;28;20051;-65
2023/11/24 10:05:01;;;;;;;14.65;2.90;;;7.00;99.90;;;;;;5064831;28;20063;-65
2023/11/24 10:07:29;;;;;;;9.23;1.70;;;7.10;99.90;;;;;;5067498;28;20071;-65
2023/11/24 10:09:54;;;;;;;11.07;1.77;;;7.10;99.90;;;;;;5065598;28;20056;-65
2023/11/24 10:12:21;;;;;;;11.82;1.75;;;7.00;99.90;;;;;;5065012;28;20040;-65
2023/11/24 10:14:48;;;;;;;10.60;1.80;;;6.90;99.90;;;;;;5065439;28;20479;-65
2023/11/24 10:17:13;;;;;;;9.70;2.72;;;6.90;99.90;;;;;;5067640;28;20113;-65
2023/11/24 10:19:39;;;;;;;8.45;1.08;;;6.90;99.90;;;;;;5068721;28;20145;-65
2023/11/24 10:22:05;;;;;;;10.23;2.67;;;6.90;99.90;;;;;;5066656;28;20036;-65
2023/11/24 10:24:37;;;;;;;11.98;2.30;;;6.90;99.90;;;;;;5071343;28;20055;-65
2023/11/24 10:27:22;;;;;;;12.38;2.33;;;7.00;99.90;;;;;;5068223;28;20041;-65
2023/11/24 10:29:52;;;;;;;19.58;3.70;;;7.00;99.90;;;;;;5067546;28;20052;-65
2023/11/24 10:32:19;;;;;;;12.85;2.17;;;7.00;99.90;;;;;;5079437;28;20053;-65
2023/11/24 10:34:48;;;;;;;9.95;1.63;;;7.10;99.90;;;;;;5069461;28;20052;-65
2023/11/24 10:37:19;;;;;;;20.90;3.40;;;7.30;99.90;;;;;;5068516;28;20497;-65
2023/11/24 10:39:46;;;;;;;11.70;2.17;;;7.30;99.90;;;;;;5063071;28;20054;-65
2023/11/24 10:42:15;;;;;;;11.93;2.22;;;7.30;99.90;;;;;;5066118;28;21881;-65
2023/11/24 10:44:43;;;;;;;9.27;2.63;;;7.20;99.90;;;;;;5068280;28;20474;-65
2023/11/24 10:47:11;;;;;;;14.55;2.38;;;7.20;99.90;;;;;;5063881;28;20051;-65
2023/11/24 10:49:47;;;;;;;14.98;2.63;;;7.10;99.90;;;;;;5065994;28;20049;-65
2023/11/24 10:52:27;;;;;;;12.63;1.70;;;7.10;99.90;;;;;;5068754;28;20774;-65
2023/11/24 10:55:13;;;;;;;12.85;2.42;;;7.00;99.90;;;;;;5064498;28;20153;-65
2023/11/24 10:57:41;;;;;;;11.18;2.85;;;6.90;99.90;;;;;;5067314;28;20040;-65
2023/11/24 11:00:08;;;;;;;12.38;1.35;;;6.90;99.90;;;;;;5064036;28;20075;-65
2023/11/24 11:02:39;;;;;;;14.77;1.30;;;7.00;99.90;;;;;;5066827;28;20049;-65
2023/11/24 11:05:23;;;;;;;12.55;2.00;;;7.00;99.90;;;;;;5064081;28;20048;-65
2023/11/24 11:08:06;;;;;;;11.80;2.10;;;7.20;99.90;;;;;;5098424;28;20049;-65
2023/11/24 11:10:44;;;;;;;13.98;4.40;;;7.40;99.90;;;;;;5061322;28;20189;-65
2023/11/24 11:13:11;;;;;;;11.30;2.08;;;7.50;99.90;;;;;;5065235;28;20585;-65
2023/11/24 11:15:38;;;;;;;12.27;2.03;;;7.40;99.90;;;;;;5063518;28;20044;-65
2023/11/24 11:18:13;;;;;;;5.53;0.90;;;7.40;99.90;;;;;;5067460;28;20095;-65
2023/11/24 11:20:40;;;;;;;5.70;1.73;;;7.30;99.90;;;;;;5066261;28;20064;-65
2023/11/24 11:23:15;;;;;;;7.88;0.75;;;7.10;99.90;;;;;;5065510;28;20141;-65
2023/11/24 11:25:43;;;;;;;5.53;1.23;;;7.00;99.90;;;;;;5066134;28;20056;-65
2023/11/24 11:28:17;;;;;;;6.25;1.50;;;7.00;99.90;;;;;;5067747;28;20129;-65
2023/11/24 11:30:45;;;;;;;7.68;1.58;;;7.00;99.90;;;;;;5062573;28;20192;-65
2023/11/24 11:33:14;;;;;;;12.77;1.92;;;7.10;99.90;;;;;;5062846;28;20087;-65
2023/11/24 11:35:44;;;;;;;9.90;1.67;;;7.20;99.90;;;;;;5063244;28;20371;-65
2023/11/24 11:38:13;;;;;;;13.95;1.67;;;7.30;99.90;;;;;;5062282;28;20060;-65
2023/11/24 11:40:43;;;;;;;8.70;1.63;;;7.20;99.90;;;;;;5062258;28;20044;-65
2023/11/24 11:43:10;;;;;;;9.80;1.73;;;7.20;99.90;;;;;;5064393;28;20040;-65
2023/11/24 11:45:48;;;;;;;10.82;1.52;;;7.10;99.90;;;;;;5065900;28;20036;-65
2023/11/24 11:48:14;;;;;;;14.45;1.77;;;7.00;99.90;;;;;;5064793;28;20050;-65
2023/11/24 11:51:01;;;;;;;10.07;1.52;;;7.00;99.90;;;;;;5049149;28;20494;-65
2023/11/24 11:53:33;;;;;;;8.68;1.20;;;6.90;99.90;;;;;;5068925;28;20068;-65
2023/11/24 11:56:00;;;;;;;11.05;1.58;;;6.80;99.90;;;;;;5064930;28;20064;-65
2023/11/24 11:58:29;;;;;;;8.05;1.70;;;6.80;99.90;;;;;;5067336;28;20075;-65
2023/11/24 12:00:54;;;;;;;10.32;1.25;;;6.90;99.90;;;;;;5068194;28;20122;-65
2023/11/24 12:03:23;;;;;;;7.20;1.38;;;7.10;99.90;;;;;;5065223;28;20093;-65
2023/11/24 12:05:51;;;;;;;8.45;1.98;;;7.20;99.90;;;;;;5066025;28;20036;-65
2023/11/24 12:08:18;;;;;;;10.00;1.70;;;7.20;99.90;;;;;;5062958;28;20212;-65
2023/11/24 12:10:45;;;;;;;10.63;1.60;;;7.30;99.90;;;;;;5082157;28;20048;-65
2023/11/24 12:13:11;;;;;;;15.68;2.17;;;7.40;99.90;;;;;;5066376;28;20504;-65
2023/11/24 12:15:37;;;;;;;9.38;1.35;;;7.30;99.90;;;;;;5063723;28;20036;-65
2023/11/24 12:18:06;;;;;;;6.65;1.33;;;7.30;99.90;;;;;;5061110;28;20341;-65
2023/11/24 12:20:34;;;;;;;8.30;1.65;;;7.40;99.90;;;;;;5061924;28;20067;-64
2023/11/24 12:23:00;;;;;;;12.80;1.67;;;7.40;99.90;;;;;;5063709;28;20040;-65
2023/11/24 12:25:27;;;;;;;9.60;1.90;;;7.40;99.90;;;;;;5091730;28;20044;-65
2023/11/24 12:27:57;;;;;;;14.40;2.35;;;7.40;99.90;;;;;;5092756;28;20045;-65
2023/11/24 12:30:22;;;;;;;9.77;2.17;;;7.50;99.90;;;;;;5061062;28;20079;-65
2023/11/24 12:32:50;;;;;;;9.45;1.33;;;7.40;99.90;;;;;;5060839;28;20040;-65
2023/11/24 12:35:16;;;;;;;7.40;1.20;;;7.30;99.90;;;;;;5045983;28;20055;-65
2023/11/24 12:37:46;;;;;;;8.35;1.73;;;6.90;99.90;;;;;;5065394;28;20615;-65
2023/11/24 12:40:12;;;;;;;7.85;1.30;;;6.60;99.90;;;;;;5063717;28;20051;-65
2023/11/24 12:42:38;;;;;;;5.43;1.02;;;6.30;99.90;;;;;;5095541;28;20128;-65
2023/11/24 12:45:08;;;;;;;6.97;0.80;;;6.00;99.90;;;;;;5062176;28;20126;-65
2023/11/24 12:47:34;;;;;;;12.20;1.50;;;5.90;99.90;;;;;;5063584;28;20052;-65
2023/11/24 12:50:14;;;;;;;7.07;0.90;;;5.80;99.90;;;;;;5061044;28;20465;-65
2023/11/24 12:52:43;;;;;;;7.88;0.90;;;5.70;99.90;;;;;;5060435;28;20472;-65